Terminal Aerodrome Forecast
Issued by NWS Birmingham, AL

Home | Current Version | Previous Version | Text Only | Print | Product List | Glossary On
Versions: 1 2 3 4 5 6 7 8 9 10 11 12 13
005
FTUS44 KBMX 220520
TAFBHM
TAF
KBHM 220520Z 2206/2306 11006KT P6SM BKN250
     FM221300 13007KT P6SM SCT020 BKN150
     FM221500 13012G20KT P6SM BKN040 OVC150
     FM222300 15010G18KT 5SM RA VCTS OVC040CB=

USA.gov is the U.S. government's official web portal to all federal, state and local government web resources and services.